Terminal Aerodrome Forecast
Issued by NWS

Home | Current Version | Previous Version | Text Only | Print | Product List | Glossary On
Versions: 1 2 3 4 5 6 7 8 9 10 11 12 13
000
FTUS43 KPAH 211600 AAA
TAFCGI
TAF AMD
KCGI 211604Z 2116/2212 24008KT P6SM -SHRA SCT030 BKN060
      TEMPO 2122/2202 4SM -SHRA BR BKN030CB
     FM220800 32008KT 5SM BR BKN035=

USA.gov is the U.S. government's official web portal to all federal, state and local government web resources and services.